Time;durP1;ratioP1;P1;durP2;ratioP2;P2;SDS_P1;SDS_P2;PMS_P1;PMS_P2;Temp;Humidity;BMP_temperature;BMP_pressure;BME280_temperature;BME280_humidity;BME280_pressure;Samples;Min_cycle;Max_cycle;Signal;HPM_P1;HPM_P2
2022/02/26 00:01:10;;;;;;;21.20;20.30;;;18.80;54.90;;;;;;5035221;28;20449;-39
2022/02/26 00:03:38;;;;;;;20.30;19.50;;;18.80;55.00;;;;;;5035421;28;20448;-43
2022/02/26 00:06:05;;;;;;;21.67;20.77;;;18.80;55.00;;;;;;5035254;28;20479;-41
2022/02/26 00:08:32;;;;;;;21.03;20.13;;;18.70;55.10;;;;;;5034620;28;20946;-41
2022/02/26 00:10:58;;;;;;;21.10;20.10;;;18.70;55.20;;;;;;5035234;28;20445;-41
2022/02/26 00:13:26;;;;;;;22.03;20.93;;;18.60;55.20;;;;;;5035154;28;20449;-41
2022/02/26 00:15:52;;;;;;;22.13;21.23;;;18.60;55.30;;;;;;5035177;28;20572;-40
2022/02/26 00:18:19;;;;;;;21.40;20.50;;;18.60;55.80;;;;;;5034488;28;20480;-41
2022/02/26 00:20:47;;;;;;;22.13;21.00;;;18.60;55.40;;;;;;5035000;28;20456;-41
2022/02/26 00:23:14;;;;;;;21.77;20.77;;;18.50;55.60;;;;;;5035034;28;20441;-42
2022/02/26 00:25:41;;;;;;;21.30;20.40;;;18.50;55.80;;;;;;5034968;28;20452;-42
2022/02/26 00:28:08;;;;;;;21.90;20.90;;;18.50;55.90;;;;;;5034551;28;20440;-42
2022/02/26 00:30:35;;;;;;;21.33;20.33;;;18.40;56.00;;;;;;5034818;28;20469;-41
2022/02/26 00:33:01;;;;;;;21.00;20.10;;;18.30;56.00;;;;;;5034914;28;20810;-41
2022/02/26 00:35:28;;;;;;;21.50;20.50;;;18.20;56.30;;;;;;5034764;28;20445;-40
2022/02/26 00:37:56;;;;;;;21.67;20.77;;;18.10;56.60;;;;;;5034361;28;20834;-41
2022/02/26 00:40:23;;;;;;;21.70;20.70;;;18.10;56.80;;;;;;5034609;28;20469;-41
2022/02/26 00:42:50;;;;;;;21.23;20.33;;;18.10;56.90;;;;;;5034666;28;20449;-42
2022/02/26 00:45:17;;;;;;;21.33;20.43;;;18.00;57.10;;;;;;5034706;28;20818;-40
2022/02/26 00:47:44;;;;;;;20.53;19.63;;;18.00;57.20;;;;;;5034270;28;20446;-42
2022/02/26 00:50:10;;;;;;;21.50;20.53;;;18.00;57.50;;;;;;5034546;28;20480;-41
2022/02/26 00:52:37;;;;;;;21.70;20.70;;;17.90;57.60;;;;;;5034388;28;20445;-40
2022/02/26 00:55:07;;;;;;;21.10;20.20;;;17.90;58.00;;;;;;5034404;28;20476;-40
2022/02/26 00:57:34;;;;;;;21.93;20.93;;;17.90;58.10;;;;;;5034141;28;20449;-40
2022/02/26 01:00:01;;;;;;;22.27;21.17;;;17.90;58.20;;;;;;5033908;28;20485;-41
2022/02/26 01:02:28;;;;;;;21.80;20.73;;;17.90;58.30;;;;;;5034160;28;20460;-40
2022/02/26 01:04:55;;;;;;;20.70;19.87;;;17.90;58.50;;;;;;5034335;28;20452;-40
2022/02/26 01:07:22;;;;;;;19.87;19.07;;;17.90;58.60;;;;;;5033902;28;20450;-41
2022/02/26 01:09:49;;;;;;;20.80;19.93;;;17.80;58.70;;;;;;5033313;28;20465;-40
2022/02/26 01:12:17;;;;;;;22.17;21.07;;;17.80;58.90;;;;;;5034177;28;20449;-40
2022/02/26 01:14:45;;;;;;;20.53;19.73;;;17.80;59.00;;;;;;5034052;28;20947;-40
2022/02/26 01:17:14;;;;;;;22.20;21.20;;;17.70;59.10;;;;;;5033713;28;20445;-41
2022/02/26 01:19:41;;;;;;;21.27;20.20;;;17.80;59.00;;;;;;5033704;28;20859;-40
2022/02/26 01:22:08;;;;;;;21.20;20.30;;;17.80;59.00;;;;;;5033844;28;20442;-41
2022/02/26 01:24:35;;;;;;;21.23;20.33;;;17.80;59.20;;;;;;5033831;28;20789;-40
2022/02/26 01:27:02;;;;;;;21.73;20.73;;;17.80;59.20;;;;;;5033895;28;20449;-40
2022/02/26 01:29:31;;;;;;;21.40;20.30;;;17.70;59.30;;;;;;5033254;28;20473;-39
2022/02/26 01:31:57;;;;;;;21.70;20.70;;;17.70;59.70;;;;;;5033927;28;20452;-40
2022/02/26 01:34:24;;;;;;;21.03;20.17;;;17.70;59.80;;;;;;5033749;28;20854;-39
2022/02/26 01:36:51;;;;;;;21.03;20.20;;;17.70;59.90;;;;;;5033611;28;20449;-40
2022/02/26 01:39:23;;;;;;;21.20;20.30;;;17.60;60.00;;;;;;5033064;28;20838;-40
2022/02/26 01:41:50;;;;;;;20.90;20.00;;;17.70;60.10;;;;;;5033606;28;20441;-40
2022/02/26 01:44:16;;;;;;;21.07;20.17;;;17.60;60.10;;;;;;5033673;28;20616;-40
2022/02/26 01:46:45;;;;;;;21.20;20.20;;;17.60;60.50;;;;;;5033527;28;20446;-40
2022/02/26 01:49:12;;;;;;;21.33;20.43;;;17.60;60.40;;;;;;5032554;28;20461;-40
2022/02/26 01:51:39;;;;;;;21.53;20.53;;;17.60;60.50;;;;;;5033387;28;20452;-40
2022/02/26 01:54:06;;;;;;;21.60;20.47;;;17.60;60.60;;;;;;5033297;28;20939;-41
2022/02/26 01:56:33;;;;;;;21.17;20.27;;;17.60;60.50;;;;;;5033240;28;20445;-41
2022/02/26 01:59:00;;;;;;;21.20;20.30;;;17.50;60.80;;;;;;5032492;28;20484;-41
2022/02/26 02:01:26;;;;;;;20.23;19.43;;;17.50;61.00;;;;;;5033108;28;20943;-41
2022/02/26 02:03:54;;;;;;;21.63;20.53;;;17.40;61.60;;;;;;5033162;28;20449;-40
2022/02/26 02:06:22;;;;;;;22.00;21.10;;;17.40;62.00;;;;;;5033070;28;20827;-40
2022/02/26 02:08:50;;;;;;;20.80;19.90;;;17.30;62.50;;;;;;5032569;28;20461;-41
2022/02/26 02:11:17;;;;;;;22.17;21.00;;;17.30;63.00;;;;;;5031891;28;20902;-41
2022/02/26 02:13:44;;;;;;;21.50;20.60;;;17.30;63.40;;;;;;5032970;28;20449;-44
2022/02/26 02:16:11;;;;;;;22.20;20.97;;;17.30;63.30;;;;;;5032934;28;20958;-41
2022/02/26 02:18:38;;;;;;;21.30;20.40;;;17.30;63.70;;;;;;5031737;28;21010;-41
2022/02/26 02:21:06;;;;;;;21.40;20.50;;;17.30;63.90;;;;;;5032827;28;20445;-44
2022/02/26 02:23:34;;;;;;;21.47;20.53;;;17.20;64.10;;;;;;5032740;28;20446;-43
2022/02/26 02:26:02;;;;;;;22.00;20.83;;;17.20;64.20;;;;;;5032731;28;20441;-43
2022/02/26 02:28:28;;;;;;;21.40;20.50;;;17.20;64.60;;;;;;5032036;28;20959;-41
2022/02/26 02:30:55;;;;;;;21.70;20.60;;;17.20;64.70;;;;;;5032334;28;20450;-41
2022/02/26 02:33:22;;;;;;;21.00;20.10;;;17.20;64.80;;;;;;5032493;28;20449;-40
2022/02/26 02:35:49;;;;;;;21.63;20.73;;;17.10;65.10;;;;;;5032494;28;20836;-41
2022/02/26 02:38:17;;;;;;;20.40;19.60;;;17.10;65.40;;;;;;5032126;28;20461;-44
2022/02/26 02:40:47;;;;;;;21.43;20.50;;;17.10;65.70;;;;;;5032402;28;20576;-41
2022/02/26 02:43:15;;;;;;;21.50;20.60;;;17.10;66.00;;;;;;5032552;28;20458;-41
2022/02/26 02:45:42;;;;;;;21.27;20.37;;;17.10;66.20;;;;;;5032466;28;20448;-43
2022/02/26 02:48:10;;;;;;;21.13;20.23;;;17.00;66.30;;;;;;5031829;28;20445;-41
2022/02/26 02:50:36;;;;;;;21.93;20.93;;;17.00;66.50;;;;;;5031848;28;20805;-40
2022/02/26 02:53:03;;;;;;;20.80;19.90;;;17.10;66.60;;;;;;5032341;28;20485;-41
2022/02/26 02:55:30;;;;;;;20.80;19.90;;;17.00;66.60;;;;;;5032170;28;20452;-41
2022/02/26 02:57:59;;;;;;;21.60;20.60;;;17.00;66.90;;;;;;5031566;28;20781;-41
2022/02/26 03:00:27;;;;;;;21.10;20.20;;;17.00;67.30;;;;;;5031863;28;20523;-41
2022/02/26 03:02:53;;;;;;;20.80;20.00;;;17.00;67.40;;;;;;5032098;28;20773;-41
2022/02/26 03:05:21;;;;;;;21.27;20.27;;;16.90;67.50;;;;;;5032089;28;20441;-41
2022/02/26 03:07:49;;;;;;;21.60;20.70;;;16.90;67.80;;;;;;5031684;28;20477;-43
2022/02/26 03:10:15;;;;;;;20.90;20.00;;;16.90;68.00;;;;;;5031774;28;20997;-41
2022/02/26 03:12:42;;;;;;;21.60;20.60;;;16.90;67.90;;;;;;5031755;28;20471;-41
2022/02/26 03:15:11;;;;;;;21.60;20.60;;;16.90;68.40;;;;;;5031959;28;20800;-41
2022/02/26 03:17:38;;;;;;;20.60;19.80;;;16.90;68.60;;;;;;5031783;28;20445;-42
2022/02/26 03:20:06;;;;;;;21.23;20.33;;;16.80;68.90;;;;;;5031293;28;20492;-41
2022/02/26 03:22:32;;;;;;;20.60;19.80;;;16.80;69.20;;;;;;5031642;28;20442;-42
2022/02/26 03:24:59;;;;;;;21.07;20.17;;;16.80;69.40;;;;;;5031809;28;20445;-41
2022/02/26 03:27:26;;;;;;;22.13;21.13;;;16.80;69.70;;;;;;5031713;28;20465;-40
2022/02/26 03:29:53;;;;;;;21.50;20.50;;;16.80;69.80;;;;;;5031268;28;20463;-44
2022/02/26 03:32:21;;;;;;;21.70;20.73;;;16.70;70.20;;;;;;5031841;28;20441;-41
2022/02/26 03:34:47;;;;;;;21.90;20.77;;;16.70;70.60;;;;;;5031742;28;20460;-41
2022/02/26 03:37:15;;;;;;;20.40;19.60;;;16.70;70.70;;;;;;5031610;28;20445;-43
2022/02/26 03:39:42;;;;;;;21.37;20.37;;;16.70;70.70;;;;;;5031148;28;20512;-41
2022/02/26 03:42:09;;;;;;;21.73;20.83;;;16.70;71.00;;;;;;5031755;28;20445;-41
2022/02/26 03:44:37;;;;;;;20.90;20.00;;;16.70;71.20;;;;;;5031595;28;20441;-41
2022/02/26 03:47:04;;;;;;;21.20;20.20;;;16.60;71.50;;;;;;5031328;28;20464;-39
2022/02/26 03:49:32;;;;;;;21.27;20.27;;;16.70;71.80;;;;;;5031347;28;20473;-39
2022/02/26 03:51:59;;;;;;;21.50;20.50;;;16.60;72.00;;;;;;5031579;28;20445;-39
2022/02/26 03:54:26;;;;;;;21.00;20.10;;;16.60;72.50;;;;;;5031479;28;20453;-41
2022/02/26 03:56:53;;;;;;;21.60;20.67;;;16.60;72.70;;;;;;5031408;28;20472;-40
2022/02/26 03:59:20;;;;;;;21.00;20.10;;;16.60;72.80;;;;;;5030976;28;20485;-39
2022/02/26 04:01:47;;;;;;;20.80;19.90;;;16.60;72.70;;;;;;5031428;28;20453;-40
2022/02/26 04:04:13;;;;;;;22.00;21.07;;;16.70;72.60;;;;;;5031355;28;20444;-39
2022/02/26 04:06:42;;;;;;;21.60;20.60;;;16.70;72.90;;;;;;5031174;28;20452;-39
2022/02/26 04:09:08;;;;;;;21.53;20.53;;;16.70;72.80;;;;;;5030811;28;20462;-40
2022/02/26 04:11:36;;;;;;;21.50;20.50;;;16.70;73.10;;;;;;5031424;28;20442;-39
2022/02/26 04:14:03;;;;;;;21.53;20.53;;;16.60;73.40;;;;;;5031333;28;20445;-41
2022/02/26 04:16:30;;;;;;;21.90;20.90;;;16.60;73.70;;;;;;5031041;28;20445;-40
2022/02/26 04:18:56;;;;;;;21.57;20.67;;;16.70;73.70;;;;;;5030908;28;20491;-39
2022/02/26 04:21:25;;;;;;;21.10;20.20;;;16.70;73.60;;;;;;5031017;28;20503;-40
2022/02/26 04:23:53;;;;;;;21.70;20.80;;;16.80;73.70;;;;;;5031221;28;20454;-39
2022/02/26 04:26:20;;;;;;;21.87;20.97;;;16.80;73.80;;;;;;5031231;28;20458;-40
2022/02/26 04:28:47;;;;;;;21.67;20.67;;;16.90;73.10;;;;;;5030574;28;20468;-40
2022/02/26 04:31:14;;;;;;;21.43;20.53;;;16.90;73.30;;;;;;5031213;28;20445;-39
2022/02/26 04:33:40;;;;;;;21.67;20.77;;;16.90;73.40;;;;;;5032320;28;20456;-40
2022/02/26 04:36:07;;;;;;;21.40;20.40;;;16.80;73.50;;;;;;5034739;28;20448;-41
2022/02/26 04:38:35;;;;;;;21.07;20.17;;;16.80;73.90;;;;;;5034527;28;20445;-39
2022/02/26 04:41:04;;;;;;;21.23;20.33;;;16.80;73.70;;;;;;5034705;28;20904;-39
2022/02/26 04:43:32;;;;;;;21.50;20.40;;;16.80;73.50;;;;;;5034601;28;20449;-40
2022/02/26 04:45:58;;;;;;;21.70;20.70;;;16.70;73.80;;;;;;5034764;28;20448;-40
2022/02/26 04:48:25;;;;;;;21.13;20.17;;;16.80;74.00;;;;;;5034220;28;20454;-39
2022/02/26 04:50:53;;;;;;;21.27;20.37;;;16.80;74.30;;;;;;5034527;28;20445;-41
2022/02/26 04:53:19;;;;;;;21.60;20.60;;;16.80;74.10;;;;;;5034585;28;20445;-40
2022/02/26 04:55:46;;;;;;;21.53;20.57;;;16.90;74.00;;;;;;5034360;28;20825;-40
2022/02/26 04:58:14;;;;;;;21.67;20.57;;;16.70;74.60;;;;;;5033723;28;20445;-41
2022/02/26 05:00:41;;;;;;;21.67;20.67;;;16.60;75.60;;;;;;5034263;28;20579;-40
2022/02/26 05:03:08;;;;;;;21.30;20.40;;;16.60;76.10;;;;;;5034250;28;20445;-41
2022/02/26 05:05:34;;;;;;;22.53;21.43;;;16.60;76.10;;;;;;5034406;28;20460;-40
2022/02/26 05:08:01;;;;;;;21.90;20.90;;;16.70;75.80;;;;;;5033903;28;20452;-40
2022/02/26 05:10:30;;;;;;;21.73;20.80;;;16.70;75.60;;;;;;5034052;28;20473;-42
2022/02/26 05:12:57;;;;;;;21.87;20.87;;;16.70;75.60;;;;;;5034156;28;20454;-40
2022/02/26 05:15:25;;;;;;;22.27;21.17;;;16.70;75.70;;;;;;5034167;28;20467;-41
2022/02/26 05:17:52;;;;;;;22.37;21.37;;;16.50;76.80;;;;;;5033613;28;20981;-41
2022/02/26 05:20:19;;;;;;;22.00;21.00;;;16.40;78.10;;;;;;5033489;28;20492;-41
2022/02/26 05:22:45;;;;;;;22.23;21.13;;;16.40;78.90;;;;;;5033990;28;20448;-41
2022/02/26 05:25:12;;;;;;;22.40;21.30;;;16.30;79.00;;;;;;5033945;28;20449;-41
2022/02/26 05:27:40;;;;;;;23.43;22.03;;;16.40;79.30;;;;;;5033784;28;20445;-41
2022/02/26 05:30:09;;;;;;;22.47;21.37;;;16.40;78.80;;;;;;5033646;28;20473;-41
2022/02/26 05:32:37;;;;;;;21.57;20.60;;;16.40;79.10;;;;;;5033723;28;20533;-41
2022/02/26 05:35:04;;;;;;;22.00;20.70;;;16.50;79.10;;;;;;5033861;28;20456;-41
2022/02/26 05:37:31;;;;;;;22.20;21.10;;;16.50;78.60;;;;;;5033404;28;20449;-41
2022/02/26 05:39:59;;;;;;;21.73;20.63;;;16.50;78.70;;;;;;5033212;28;20496;-41
2022/02/26 05:42:25;;;;;;;22.30;21.30;;;16.40;79.60;;;;;;5033650;28;20433;-44
2022/02/26 05:44:52;;;;;;;21.87;20.77;;;16.30;80.40;;;;;;5033403;28;20445;-41
2022/02/26 05:47:19;;;;;;;22.37;21.27;;;16.30;81.00;;;;;;5033191;28;20448;-39
2022/02/26 05:49:47;;;;;;;21.87;20.87;;;16.20;81.60;;;;;;5033196;28;20468;-40
2022/02/26 05:52:14;;;;;;;22.40;21.10;;;16.70;83.60;;;;;;5033399;28;20452;-39
2022/02/26 05:54:40;;;;;;;22.20;21.20;;;17.20;79.40;;;;;;5033432;28;20445;-39
2022/02/26 05:57:07;;;;;;;22.53;21.43;;;17.50;76.40;;;;;;5033120;28;20812;-39
2022/02/26 05:59:34;;;;;;;22.40;21.30;;;17.90;73.90;;;;;;5032767;28;20889;-39
2022/02/26 06:02:01;;;;;;;21.87;20.87;;;18.30;71.30;;;;;;5033130;28;20452;-39
2022/02/26 06:04:28;;;;;;;21.87;20.87;;;18.60;68.80;;;;;;5033126;28;20961;-40
2022/02/26 06:06:56;;;;;;;24.50;23.50;;;18.80;66.60;;;;;;5032934;28;20441;-39
2022/02/26 06:09:23;;;;;;;23.37;22.37;;;19.00;64.60;;;;;;5032887;28;20832;-40
2022/02/26 06:11:50;;;;;;;22.10;21.30;;;19.20;63.10;;;;;;5033120;28;20445;-40
2022/02/26 06:14:16;;;;;;;27.03;26.03;;;19.30;61.60;;;;;;5023053;28;20464;-42
2022/02/26 06:16:43;;;;;;;26.33;25.33;;;19.40;60.90;;;;;;5021168;28;20460;-41
2022/02/26 06:19:11;;;;;;;28.50;27.40;;;19.60;60.50;;;;;;5020566;28;20469;-44
2022/02/26 06:21:38;;;;;;;35.23;33.93;;;20.00;60.40;;;;;;5020889;28;20496;-43
2022/02/26 06:24:07;;;;;;;35.73;34.33;;;20.40;59.30;;;;;;5020800;28;20546;-41
2022/02/26 06:26:34;;;;;;;36.57;35.17;;;20.60;58.10;;;;;;5020620;28;20453;-42
2022/02/26 06:29:00;;;;;;;38.10;36.73;;;20.90;57.50;;;;;;5000969;28;20473;-43
2022/02/26 06:31:27;;;;;;;36.03;34.67;;;21.20;56.90;;;;;;5001223;28;21030;-42
2022/02/26 06:33:54;;;;;;;35.67;34.37;;;21.50;55.80;;;;;;5001199;28;20453;-41
2022/02/26 06:36:21;;;;;;;38.73;37.33;;;21.60;54.80;;;;;;5011507;28;20449;-43
2022/02/26 06:38:47;;;;;;;36.87;35.47;;;21.70;54.10;;;;;;5020389;28;20480;-41
2022/02/26 06:41:15;;;;;;;33.83;32.53;;;21.70;53.60;;;;;;5020455;28;20488;-41
2022/02/26 06:43:42;;;;;;;32.10;30.70;;;21.80;53.30;;;;;;5019496;28;20452;-42
2022/02/26 06:46:11;;;;;;;37.10;35.50;;;21.90;53.60;;;;;;5020080;28;20205;-43
2022/02/26 06:48:39;;;;;;;36.80;35.40;;;22.00;53.70;;;;;;5019975;28;20473;-42
2022/02/26 06:51:06;;;;;;;37.07;35.67;;;22.20;54.10;;;;;;5020201;28;20445;-41
2022/02/26 06:53:33;;;;;;;39.10;37.30;;;22.40;53.80;;;;;;5020131;28;20453;-41
2022/02/26 06:56:00;;;;;;;33.50;32.20;;;22.70;53.30;;;;;;5019510;28;20460;-42
2022/02/26 06:58:28;;;;;;;37.00;35.40;;;22.80;53.00;;;;;;5019816;28;21332;-42
2022/02/26 07:00:55;;;;;;;39.90;38.03;;;22.90;53.50;;;;;;5021122;28;20970;-43
2022/02/26 07:03:21;;;;;;;39.47;37.63;;;22.90;54.00;;;;;;5020214;28;20523;-43
2022/02/26 07:05:48;;;;;;;48.17;45.80;;;22.90;55.20;;;;;;5019834;28;20978;-42
2022/02/26 07:08:15;;;;;;;45.60;42.47;;;23.50;55.90;;;;;;5019851;28;20457;-41
2022/02/26 07:10:42;;;;;;;40.97;38.33;;;23.50;54.00;;;;;;5019752;28;20477;-42
2022/02/26 07:13:08;;;;;;;36.83;34.83;;;23.30;53.90;;;;;;5019765;28;21025;-40
2022/02/26 07:15:37;;;;;;;37.87;35.73;;;23.40;55.30;;;;;;5019518;28;20460;-40
2022/02/26 07:18:05;;;;;;;33.30;31.13;;;23.50;56.00;;;;;;5019749;28;20453;-41
2022/02/26 07:20:31;;;;;;;31.87;30.13;;;23.70;55.90;;;;;;5019737;28;20987;-38
2022/02/26 07:22:58;;;;;;;32.83;30.93;;;23.70;55.50;;;;;;5019945;28;20453;-41
2022/02/26 07:25:25;;;;;;;34.77;32.63;;;23.70;54.60;;;;;;5019640;28;20930;-40
2022/02/26 07:27:52;;;;;;;38.33;36.47;;;23.70;54.70;;;;;;5019771;28;20453;-42
2022/02/26 07:30:19;;;;;;;38.90;36.80;;;23.60;51.70;;;;;;5019453;28;20997;-40
2022/02/26 07:32:47;;;;;;;36.57;34.30;;;23.60;51.90;;;;;;5019743;28;20627;-41
2022/02/26 07:35:14;;;;;;;37.27;35.20;;;23.60;53.20;;;;;;5019675;28;20921;-41
2022/02/26 07:37:43;;;;;;;35.87;33.77;;;23.70;53.50;;;;;;5019569;28;20880;-41
2022/02/26 07:40:11;;;;;;;34.70;33.00;;;23.80;53.30;;;;;;5019292;28;20646;-40
2022/02/26 07:42:38;;;;;;;36.83;34.70;;;23.80;53.40;;;;;;5019482;28;20452;-40
2022/02/26 07:45:05;;;;;;;37.43;35.33;;;23.90;53.30;;;;;;5019623;28;20457;-41
2022/02/26 07:47:32;;;;;;;34.27;32.33;;;23.90;53.00;;;;;;5019433;28;20889;-41
2022/02/26 07:50:00;;;;;;;37.53;35.40;;;24.00;53.00;;;;;;5019161;28;20480;-40
2022/02/26 07:52:31;;;;;;;37.37;35.57;;;23.90;52.90;;;;;;5019437;28;20449;-41
2022/02/26 07:54:58;;;;;;;37.83;36.07;;;24.00;52.90;;;;;;5019255;28;20515;-41
2022/02/26 07:57:25;;;;;;;32.50;30.80;;;24.00;52.80;;;;;;5019396;28;20918;-43
2022/02/26 07:59:52;;;;;;;38.57;36.53;;;24.00;52.50;;;;;;5019286;28;20485;-42
2022/02/26 08:02:19;;;;;;;40.40;38.10;;;24.00;52.00;;;;;;5019259;28;21084;-42
2022/02/26 08:04:46;;;;;;;44.77;42.63;;;24.00;52.20;;;;;;5019297;28;20445;-42
2022/02/26 08:07:14;;;;;;;36.43;34.10;;;24.10;52.00;;;;;;5019317;28;20445;-41
2022/02/26 08:09:41;;;;;;;32.97;31.27;;;24.10;52.00;;;;;;5022052;28;20476;-41
2022/02/26 08:12:09;;;;;;;30.80;29.20;;;24.20;52.20;;;;;;5023386;28;20445;-41
2022/02/26 08:14:37;;;;;;;29.27;27.90;;;24.20;52.30;;;;;;5023116;28;20453;-41
2022/02/26 08:17:04;;;;;;;32.90;31.03;;;24.20;52.10;;;;;;5023416;28;20453;-42
2022/02/26 08:19:31;;;;;;;33.80;31.83;;;24.30;50.50;;;;;;5022805;28;20473;-41
2022/02/26 08:21:58;;;;;;;31.37;29.60;;;24.30;48.90;;;;;;5022812;28;20492;-42
2022/02/26 08:24:26;;;;;;;37.30;35.23;;;24.30;48.90;;;;;;5023213;28;20449;-41
2022/02/26 08:26:53;;;;;;;31.57;29.20;;;24.30;49.70;;;;;;5023347;28;20761;-41
2022/02/26 08:29:19;;;;;;;29.33;27.63;;;24.30;50.20;;;;;;5022656;28;20445;-39
2022/02/26 08:31:46;;;;;;;32.07;30.47;;;24.30;50.20;;;;;;5022911;28;20453;-41
2022/02/26 08:34:13;;;;;;;26.80;25.50;;;24.40;50.20;;;;;;5021998;28;20457;-41
2022/02/26 08:36:42;;;;;;;30.30;28.52;;;24.60;50.00;;;;;;5022503;28;20448;-41
2022/02/26 08:39:09;;;;;;;32.90;31.13;;;24.60;49.70;;;;;;5022460;28;20428;-41
2022/02/26 08:41:37;;;;;;;30.37;28.97;;;24.70;49.30;;;;;;5022359;28;20480;-41
2022/02/26 08:44:04;;;;;;;30.60;28.80;;;24.70;49.20;;;;;;5022759;28;20452;-40
2022/02/26 08:46:30;;;;;;;33.57;31.67;;;24.70;49.40;;;;;;5023010;28;20453;-39
2022/02/26 08:48:57;;;;;;;30.03;28.30;;;24.70;49.60;;;;;;5022430;28;20492;-42
2022/02/26 08:51:24;;;;;;;33.70;32.00;;;24.70;49.50;;;;;;5022562;28;20445;-41
2022/02/26 08:53:53;;;;;;;36.27;34.47;;;24.60;49.50;;;;;;5031256;28;20451;-41
2022/02/26 08:56:21;;;;;;;36.70;34.93;;;24.60;49.50;;;;;;5034353;28;20453;-39
2022/02/26 08:58:50;;;;;;;35.40;33.50;;;24.60;49.50;;;;;;5033919;28;20554;-41
2022/02/26 09:01:17;;;;;;;33.27;31.53;;;24.60;49.70;;;;;;5033932;28;20484;-40
2022/02/26 09:03:43;;;;;;;37.08;35.38;;;24.60;49.80;;;;;;5034254;28;20939;-42
2022/02/26 09:06:10;;;;;;;37.13;35.27;;;24.60;49.60;;;;;;5034371;28;20664;-39
2022/02/26 09:08:38;;;;;;;39.63;37.73;;;24.60;48.60;;;;;;5034106;28;20445;-41
2022/02/26 09:11:06;;;;;;;30.73;29.13;;;24.60;48.80;;;;;;5032099;28;20441;-42
2022/02/26 09:13:33;;;;;;;31.10;29.70;;;24.60;49.00;;;;;;5032988;28;20951;-40
2022/02/26 09:16:01;;;;;;;35.50;33.80;;;24.60;48.90;;;;;;5032960;28;20464;-43
2022/02/26 09:18:28;;;;;;;27.67;26.23;;;24.60;48.90;;;;;;5032936;28;20452;-40
2022/02/26 09:20:54;;;;;;;38.77;36.87;;;24.70;48.80;;;;;;5032603;28;20218;-40
2022/02/26 09:23:21;;;;;;;39.73;38.00;;;24.80;48.30;;;;;;5032987;28;20950;-40
2022/02/26 09:25:48;;;;;;;38.80;37.00;;;24.90;48.20;;;;;;5033221;28;20452;-41
2022/02/26 09:28:15;;;;;;;33.17;31.57;;;24.90;47.90;;;;;;5033670;28;20454;-41
2022/02/26 09:30:42;;;;;;;35.80;33.92;;;24.90;46.80;;;;;;5032065;28;20803;-42
2022/02/26 09:33:10;;;;;;;40.53;38.73;;;24.90;47.30;;;;;;5032539;28;20694;-43
2022/02/26 09:35:37;;;;;;;36.90;35.10;;;24.90;47.80;;;;;;5032672;28;20446;-43
2022/02/26 09:38:04;;;;;;;30.70;29.10;;;25.00;48.00;;;;;;5028141;28;20908;-43
2022/02/26 09:40:31;;;;;;;31.90;30.30;;;25.00;48.10;;;;;;5031919;28;20219;-43
2022/02/26 09:42:59;;;;;;;33.67;32.00;;;25.00;47.80;;;;;;5032369;28;20504;-41
2022/02/26 09:45:26;;;;;;;29.40;27.90;;;24.90;48.00;;;;;;5032562;28;20445;-40
2022/02/26 09:47:53;;;;;;;32.80;31.30;;;25.00;47.90;;;;;;5032557;28;20454;-43
2022/02/26 09:50:21;;;;;;;34.23;32.53;;;25.00;47.90;;;;;;5032908;28;20847;-41
2022/02/26 09:52:50;;;;;;;32.27;30.83;;;25.00;47.80;;;;;;5033400;28;20449;-42
2022/02/26 09:55:18;;;;;;;35.13;33.27;;;25.00;47.90;;;;;;5032311;28;21039;-40
2022/02/26 09:57:45;;;;;;;34.67;32.97;;;25.00;47.90;;;;;;5031697;28;20453;-40
2022/02/26 10:00:13;;;;;;;36.43;34.73;;;25.00;47.80;;;;;;5032650;28;20481;-42
2022/02/26 10:02:40;;;;;;;32.47;31.07;;;24.90;47.80;;;;;;5033265;28;20485;-44
2022/02/26 10:05:09;;;;;;;34.77;33.07;;;25.00;47.70;;;;;;5032416;28;20468;-40
2022/02/26 10:07:39;;;;;;;33.40;31.80;;;25.10;47.70;;;;;;5031652;28;20908;-40
2022/02/26 10:10:08;;;;;;;37.73;35.93;;;25.10;47.60;;;;;;5032549;28;20834;-41
2022/02/26 10:12:36;;;;;;;30.37;28.73;;;25.20;47.40;;;;;;5033018;28;20456;-40
2022/02/26 10:15:06;;;;;;;34.90;33.40;;;25.40;47.10;;;;;;5032202;28;20449;-41
2022/02/26 10:17:34;;;;;;;30.90;29.60;;;25.40;46.80;;;;;;5031937;28;20438;-42
2022/02/26 10:20:07;;;;;;;31.97;30.47;;;25.40;46.60;;;;;;5032508;28;20469;-40
2022/02/26 10:22:35;;;;;;;32.40;30.90;;;25.40;46.60;;;;;;5032808;28;20481;-40
2022/02/26 10:25:09;;;;;;;33.80;32.30;;;25.40;46.60;;;;;;5032516;28;20453;-40
2022/02/26 10:27:40;;;;;;;38.13;36.40;;;25.40;46.30;;;;;;5032307;28;20445;-40
2022/02/26 10:30:08;;;;;;;32.10;30.60;;;25.40;46.20;;;;;;5031926;28;20846;-39
2022/02/26 10:32:35;;;;;;;36.33;34.53;;;25.50;46.20;;;;;;5031699;28;20202;-40
2022/02/26 10:35:03;;;;;;;34.67;33.20;;;25.50;46.30;;;;;;5032606;28;20442;-39
2022/02/26 10:37:30;;;;;;;32.50;30.90;;;25.40;46.30;;;;;;5032737;28;20449;-44
2022/02/26 10:39:58;;;;;;;34.60;33.10;;;25.40;46.30;;;;;;5032355;28;20460;-42
2022/02/26 10:42:30;;;;;;;34.50;32.90;;;25.40;46.40;;;;;;5032533;28;20488;-39
2022/02/26 10:45:01;;;;;;;31.80;30.40;;;25.40;46.50;;;;;;5032542;28;20464;-39
2022/02/26 10:47:30;;;;;;;33.97;32.47;;;25.40;46.50;;;;;;5032110;28;20492;-40
2022/02/26 10:49:58;;;;;;;36.67;35.07;;;25.50;46.40;;;;;;5031931;28;21004;-41
2022/02/26 10:52:30;;;;;;;37.73;35.93;;;25.60;46.10;;;;;;5032200;28;20442;-40
2022/02/26 10:54:57;;;;;;;33.45;31.75;;;25.70;45.70;;;;;;5031479;28;20903;-40
2022/02/26 10:57:32;;;;;;;36.53;34.83;;;25.80;45.70;;;;;;5032003;28;20203;-40
2022/02/26 10:59:59;;;;;;;39.03;37.23;;;25.80;45.60;;;;;;5032036;28;20473;-39
2022/02/26 11:02:26;;;;;;;31.37;29.93;;;25.70;45.60;;;;;;5032322;28;20485;-39
2022/02/26 11:04:55;;;;;;;34.83;33.17;;;25.80;45.70;;;;;;5032143;28;20446;-40
2022/02/26 11:07:22;;;;;;;36.60;35.00;;;25.90;45.50;;;;;;5032059;28;20460;-39
2022/02/26 11:09:52;;;;;;;37.37;35.87;;;25.90;45.40;;;;;;5031757;28;20476;-40
2022/02/26 11:12:24;;;;;;;41.27;39.50;;;26.00;45.20;;;;;;5031860;28;20456;-41
2022/02/26 11:14:57;;;;;;;33.23;31.70;;;26.10;45.10;;;;;;5032052;28;20935;-39
2022/02/26 11:17:26;;;;;;;34.97;33.27;;;26.10;45.00;;;;;;5031565;28;20454;-40
2022/02/26 11:20:00;;;;;;;30.75;29.35;;;26.10;44.80;;;;;;5030453;28;20463;-39
2022/02/26 11:22:27;;;;;;;35.80;34.10;;;26.30;44.70;;;;;;5031722;28;20223;-41
2022/02/26 11:24:55;;;;;;;40.37;38.37;;;26.30;44.30;;;;;;5031847;28;20476;-42
2022/02/26 11:27:23;;;;;;;39.07;37.17;;;26.30;43.10;;;;;;5031502;28;20445;-40
2022/02/26 11:29:50;;;;;;;40.30;38.47;;;26.30;42.90;;;;;;5031555;28;20469;-40
2022/02/26 11:32:21;;;;;;;37.93;36.13;;;26.40;44.50;;;;;;5031922;28;20441;-39
2022/02/26 11:34:48;;;;;;;36.90;35.20;;;26.40;44.80;;;;;;5031678;28;20522;-38
2022/02/26 11:37:17;;;;;;;35.77;34.07;;;26.50;45.10;;;;;;5031396;28;20449;-39
2022/02/26 11:39:46;;;;;;;40.00;38.10;;;26.60;45.00;;;;;;5031919;28;20906;-40
2022/02/26 11:42:28;;;;;;;37.40;35.80;;;26.70;44.90;;;;;;5032624;28;21208;-39
2022/02/26 11:45:01;;;;;;;35.57;33.87;;;26.90;44.60;;;;;;5038274;28;20445;-39
2022/02/26 11:47:39;;;;;;;38.10;36.20;;;27.30;44.20;;;;;;5038124;28;20459;-41
2022/02/26 11:50:08;;;;;;;37.23;35.53;;;28.30;43.00;;;;;;5038183;28;20460;-40
2022/02/26 11:52:58;;;;;;;36.70;35.10;;;29.40;41.20;;;;;;5038125;28;20805;-41
2022/02/26 11:55:35;;;;;;;37.93;36.27;;;30.40;39.60;;;;;;5038216;28;20451;-39
2022/02/26 11:58:05;;;;;;;41.43;39.53;;;31.10;38.10;;;;;;5037853;28;20798;-39
2022/02/26 12:00:36;;;;;;;39.07;37.37;;;31.50;37.00;;;;;;5037742;28;20480;-39
2022/02/26 12:03:19;;;;;;;38.20;36.50;;;31.50;36.40;;;;;;5038173;28;20567;-40
2022/02/26 12:05:46;;;;;;;38.60;37.00;;;31.40;36.00;;;;;;5038016;28;20927;-39
2022/02/26 12:08:17;;;;;;;38.37;36.47;;;31.10;36.20;;;;;;5037609;28;20796;-42
2022/02/26 12:10:54;;;;;;;38.80;37.10;;;30.80;36.50;;;;;;5037895;28;20448;-39
2022/02/26 12:13:26;;;;;;;39.67;37.97;;;31.20;36.50;;;;;;5037961;28;20511;-40
2022/02/26 12:16:17;;;;;;;39.30;37.60;;;31.50;35.90;;;;;;5037683;28;21057;-42
2022/02/26 12:18:46;;;;;;;38.30;36.50;;;31.30;35.70;;;;;;5037540;28;20468;-42
2022/02/26 12:21:16;;;;;;;35.67;34.07;;;31.40;35.80;;;;;;5037565;28;20471;-40
2022/02/26 12:23:44;;;;;;;39.33;37.73;;;31.60;35.70;;;;;;5037967;28;20476;-41
2022/02/26 12:26:12;;;;;;;37.10;35.37;;;31.80;35.40;;;;;;5037636;28;20449;-43
2022/02/26 12:28:39;;;;;;;37.27;35.60;;;31.30;35.50;;;;;;5037494;28;20529;-41
2022/02/26 12:31:08;;;;;;;40.00;38.30;;;31.50;35.50;;;;;;5037964;28;20439;-39